createdAt,value
2022-12-01T00:04:11.116Z,85.50
2022-12-01T00:09:35.689Z,82.80
2022-12-01T00:14:42.552Z,78.50
2022-12-01T00:19:49.787Z,77.50
2022-12-01T00:24:57.247Z,78.10
2022-12-01T00:30:05.033Z,80.90
2022-12-01T00:35:12.383Z,81.80
2022-12-01T00:40:19.116Z,83.80
2022-12-01T00:45:25.931Z,82.50
2022-12-01T00:50:32.862Z,82.50
2022-12-01T00:55:40.307Z,87.10
2022-12-01T01:00:47.157Z,84.80
2022-12-01T01:05:53.977Z,89.00
2022-12-01T01:11:02.198Z,95.10
2022-12-01T01:16:14.611Z,72.70
2022-12-01T01:26:31.130Z,72.80
2022-12-01T01:31:38.413Z,76.20
2022-12-01T01:36:46.161Z,67.00
2022-12-01T01:41:53.047Z,74.20
2022-12-01T01:46:59.996Z,72.50
2022-12-01T01:52:07.340Z,77.50
2022-12-01T01:57:16.411Z,68.30
2022-12-01T02:02:23.320Z,78.60
2022-12-01T02:07:30.354Z,74.50
2022-12-01T02:12:57.162Z,69.00
2022-12-01T02:18:14.705Z,72.30
2022-12-01T02:23:49.670Z,76.70
2022-12-01T02:29:18.417Z,72.70
2022-12-01T02:34:31.114Z,78.40
2022-12-01T02:39:45.171Z,72.50
2022-12-01T02:44:52.377Z,82.00
2022-12-01T02:50:02.882Z,82.00
2022-12-01T02:55:10.737Z,84.90
2022-12-01T03:00:19.906Z,86.10
2022-12-01T03:05:32.379Z,94.50
2022-12-01T03:10:49.303Z,94.60
2022-12-01T03:16:02.885Z,88.30
2022-12-01T03:21:15.896Z,95.70
2022-12-01T03:26:25.434Z,91.00
2022-12-01T03:31:40.780Z,84.70
2022-12-01T03:36:52.425Z,93.80
2022-12-01T03:42:03.474Z,87.30
2022-12-01T03:47:14.256Z,85.30
2022-12-01T03:52:35.139Z,90.30
2022-12-01T03:57:47.454Z,101.50
2022-12-01T04:02:59.574Z,101.50
2022-12-01T04:13:22.238Z,96.00
2022-12-01T04:18:29.062Z,100.50
2022-12-01T04:23:53.525Z,97.90
2022-12-01T04:29:01.348Z,106.50
2022-12-01T04:34:09.400Z,98.50
2022-12-01T04:39:16.597Z,100.90
2022-12-01T04:44:23.358Z,94.80
2022-12-01T04:49:30.271Z,97.80
2022-12-01T04:54:37.212Z,93.30
2022-12-01T04:59:43.991Z,96.90
2022-12-01T05:04:51.068Z,91.00
2022-12-01T05:09:58.102Z,101.20
2022-12-01T05:15:05.728Z,93.90
2022-12-01T05:20:39.743Z,92.10
2022-12-01T05:25:46.759Z,79.90
2022-12-01T05:30:57.745Z,92.00
2022-12-01T05:36:05.704Z,94.40
2022-12-01T05:41:13.030Z,104.40
2022-12-01T05:46:20.195Z,102.00
2022-12-01T05:51:27.038Z,110.80
2022-12-01T05:56:35.333Z,105.20
2022-12-01T06:01:42.254Z,105.40
2022-12-01T06:06:49.170Z,104.60
2022-12-01T06:11:56.002Z,103.60
2022-12-01T06:17:03.079Z,112.00
2022-12-01T06:22:10.136Z,103.70
2022-12-01T06:27:17.207Z,102.90
2022-12-01T06:32:24.075Z,117.70
2022-12-01T06:37:32.929Z,105.40
2022-12-01T06:42:39.980Z,109.70
2022-12-01T06:47:50.844Z,107.50
2022-12-01T06:52:59.360Z,110.50
2022-12-01T06:58:06.850Z,106.20
2022-12-01T07:03:13.855Z,107.60
2022-12-01T07:08:22.542Z,111.00
2022-12-01T07:13:33.374Z,109.90
2022-12-01T07:18:40.749Z,108.10
2022-12-01T07:23:47.530Z,96.00
2022-12-01T07:28:55.660Z,98.80
2022-12-01T07:34:02.563Z,104.70
2022-12-01T07:39:10.534Z,106.50
2022-12-01T07:44:17.524Z,99.50
2022-12-01T07:49:24.381Z,97.00
2022-12-01T07:54:31.160Z,95.00
2022-12-01T07:59:37.926Z,92.30
2022-12-01T08:04:45.433Z,93.70
2022-12-01T08:09:52.221Z,91.30
2022-12-01T08:14:58.962Z,93.40
2022-12-01T08:20:06.693Z,97.20
2022-12-01T08:25:13.712Z,84.80
2022-12-01T08:30:21.016Z,86.00
2022-12-01T08:35:28.334Z,92.40
2022-12-01T08:40:35.592Z,85.40
2022-12-01T08:45:42.502Z,79.60
2022-12-01T08:50:49.409Z,87.40
2022-12-01T08:55:56.310Z,82.90
2022-12-01T09:01:08.850Z,81.90
2022-12-01T09:06:20.232Z,80.10
2022-12-01T09:11:27.452Z,83.20
2022-12-01T09:16:34.723Z,73.10
2022-12-01T09:21:42.773Z,79.60
2022-12-01T09:26:49.941Z,82.70
2022-12-01T09:32:00.401Z,75.70
2022-12-01T09:37:07.748Z,72.40
2022-12-01T09:42:18.637Z,73.70
2022-12-01T09:47:30.875Z,86.40
2022-12-01T09:52:45.120Z,82.10
2022-12-01T09:58:04.741Z,72.80
2022-12-01T10:03:26.124Z,72.20
2022-12-01T10:08:38.279Z,70.00
2022-12-01T10:13:45.283Z,72.50
2022-12-01T10:19:01.186Z,67.60
2022-12-01T10:24:26.224Z,73.70
2022-12-01T10:29:45.063Z,78.20
2022-12-01T10:34:54.502Z,74.80
2022-12-01T10:40:01.477Z,71.60
2022-12-01T10:45:15.299Z,68.20
2022-12-01T10:50:29.026Z,62.70
2022-12-01T10:55:43.467Z,68.10
2022-12-01T11:01:01.241Z,62.60
2022-12-01T11:06:10.071Z,62.30
2022-12-01T11:11:29.165Z,60.40
2022-12-01T11:16:43.397Z,59.00
2022-12-01T11:21:52.632Z,58.30
2022-12-01T11:27:01.237Z,63.90
2022-12-01T11:32:20.678Z,63.80
2022-12-01T11:37:33.822Z,69.30
2022-12-01T11:42:42.071Z,65.50
2022-12-01T11:48:04.533Z,60.60
2022-12-01T11:53:29.147Z,71.80
2022-12-01T11:58:36.359Z,61.90
2022-12-01T12:03:53.368Z,61.50
2022-12-01T12:09:15.831Z,58.80
2022-12-01T12:14:48.711Z,60.90
2022-12-01T12:20:09.669Z,54.80
2022-12-01T12:25:28.915Z,52.90
2022-12-01T12:30:44.205Z,48.30
2022-12-01T12:36:03.547Z,133.10
2022-12-01T12:41:22.755Z,55.80
2022-12-01T12:46:37.431Z,52.90
2022-12-01T12:51:50.634Z,51.10
2022-12-01T12:57:07.704Z,50.90
2022-12-01T13:02:19.458Z,57.60
2022-12-01T13:07:35.699Z,57.90
2022-12-01T13:12:50.594Z,70.30
2022-12-01T13:18:03.413Z,54.80
2022-12-01T13:23:16.235Z,37.90
2022-12-01T13:28:26.285Z,33.10
2022-12-01T13:33:34.759Z,36.20
2022-12-01T13:38:43.671Z,34.20
2022-12-01T13:43:58.007Z,39.30
2022-12-01T13:49:31.819Z,35.70
2022-12-01T13:54:40.687Z,35.60
2022-12-01T14:00:25.195Z,36.60
2022-12-01T14:05:57.091Z,44.30
2022-12-01T14:11:07.605Z,31.70
2022-12-01T14:16:14.813Z,33.30
2022-12-01T14:21:44.254Z,40.60
2022-12-01T14:26:54.897Z,33.90
2022-12-01T14:32:22.974Z,33.90
2022-12-01T14:37:38.120Z,35.60
2022-12-01T14:43:06.866Z,45.80
2022-12-01T14:48:19.639Z,39.70
2022-12-01T14:53:31.798Z,63.40
2022-12-01T14:58:38.865Z,69.20
2022-12-01T15:03:49.497Z,45.60
2022-12-01T15:09:32.782Z,42.10
2022-12-01T15:14:48.069Z,47.20
2022-12-01T15:19:57.230Z,41.70
2022-12-01T15:25:15.155Z,122.30
2022-12-01T15:30:24.942Z,43.70
2022-12-01T15:35:35.742Z,37.90
2022-12-01T15:41:27.819Z,38.20
2022-12-01T15:46:30.149Z,35.90
2022-12-01T15:51:39.157Z,34.70
2022-12-01T15:56:52.547Z,35.10
2022-12-01T16:02:02.050Z,41.60
2022-12-01T16:07:12.308Z,45.60
2022-12-01T16:12:27.515Z,40.80
2022-12-01T16:17:45.474Z,67.40
2022-12-01T16:22:58.908Z,46.80
2022-12-01T16:28:07.817Z,45.60
2022-12-01T16:33:19.647Z,48.60
2022-12-01T16:38:29.826Z,52.90
2022-12-01T16:43:39.520Z,45.00
2022-12-01T16:48:46.690Z,52.70
2022-12-01T16:53:54.041Z,41.50
2022-12-01T16:59:02.623Z,40.60
2022-12-01T17:04:12.781Z,41.50
2022-12-01T17:09:20.271Z,43.50
2022-12-01T17:14:28.116Z,40.60
2022-12-01T17:19:35.918Z,42.70
2022-12-01T17:24:43.154Z,43.00
2022-12-01T17:29:50.153Z,44.00
2022-12-01T17:34:57.497Z,43.00
2022-12-01T17:40:04.740Z,37.30
2022-12-01T17:45:12.998Z,28.90
2022-12-01T17:50:20.022Z,33.60
2022-12-01T17:55:27.373Z,30.30
2022-12-01T18:00:37.674Z,25.20
2022-12-01T18:05:45.123Z,30.20
2022-12-01T18:10:54.657Z,25.30
2022-12-01T18:16:06.632Z,32.00
2022-12-01T18:21:16.237Z,25.70
2022-12-01T18:26:24.576Z,32.20
2022-12-01T18:31:33.148Z,32.60
2022-12-01T18:36:41.861Z,37.40
2022-12-01T18:41:49.656Z,32.10
2022-12-01T18:46:59.055Z,31.20
2022-12-01T18:52:06.164Z,35.80
2022-12-01T18:57:14.690Z,47.00
2022-12-01T19:02:22.286Z,40.40
2022-12-01T19:07:30.230Z,34.00
2022-12-01T19:12:41.272Z,39.60
2022-12-01T19:17:48.675Z,36.00
2022-12-01T19:22:55.601Z,38.30
2022-12-01T19:28:02.701Z,41.80
2022-12-01T19:33:14.015Z,42.60
2022-12-01T19:38:27.509Z,36.40
2022-12-01T19:43:35.944Z,33.80
2022-12-01T19:48:43.271Z,36.50
2022-12-01T19:53:51.071Z,47.10
2022-12-01T19:58:58.773Z,46.70
2022-12-01T20:04:09.569Z,60.20
2022-12-01T20:09:16.555Z,47.90
2022-12-01T20:14:23.599Z,42.10
2022-12-01T20:19:30.613Z,48.60
2022-12-01T20:24:39.764Z,53.30
2022-12-01T20:29:46.897Z,54.80
2022-12-01T20:34:54.036Z,61.30
2022-12-01T20:40:01.246Z,61.20
2022-12-01T20:45:08.960Z,56.80
2022-12-01T20:50:16.084Z,54.20
2022-12-01T20:55:24.603Z,49.80
2022-12-01T21:00:31.579Z,47.80
2022-12-01T21:05:41.799Z,52.10
2022-12-01T21:10:48.889Z,53.00
2022-12-01T21:16:03.600Z,46.00
2022-12-01T21:21:22.571Z,42.20
2022-12-01T21:26:29.448Z,52.70
2022-12-01T21:31:36.457Z,53.50
2022-12-01T21:36:43.334Z,43.20
2022-12-01T21:41:52.173Z,71.60
2022-12-01T21:47:01.564Z,44.20
2022-12-01T21:52:18.852Z,38.80
2022-12-01T21:57:38.539Z,77.30
2022-12-01T22:02:52.729Z,54.90
2022-12-01T22:08:11.294Z,42.70
2022-12-01T22:13:19.113Z,48.10
2022-12-01T22:18:30.744Z,53.40
2022-12-01T22:23:38.038Z,38.70
2022-12-01T22:28:45.355Z,55.10
2022-12-01T22:34:01.555Z,62.20
2022-12-01T22:39:29.773Z,147.20
2022-12-01T22:44:36.744Z,82.40
2022-12-01T22:49:44.525Z,73.20
2022-12-01T22:54:52.726Z,94.50
2022-12-01T23:00:02.576Z,94.80
2022-12-01T23:05:22.800Z,125.40
2022-12-01T23:10:32.698Z,62.90
2022-12-01T23:15:40.959Z,57.10
2022-12-01T23:20:51.950Z,72.10
2022-12-01T23:25:59.507Z,60.30
2022-12-01T23:31:06.599Z,66.50
2022-12-01T23:36:16.795Z,63.30
2022-12-01T23:41:28.883Z,49.70
2022-12-01T23:46:36.132Z,46.30
2022-12-01T23:51:48.711Z,49.40
2022-12-01T23:56:58.428Z,52.80
